KABI Airport (Abilene Rgnl) Information

FAA: ABI - ICAO: KABI

KABI Airport Location

State Texas
County Taylor
City Abilene
KABI Airport is 3 miles southeast of Abilene, TX.
Latitude 32-24-40.8000N
Longitude 099-40-54.8000W
Elevation 1,790ft

KABI Airport METARs

METAR KABI 302152Z 09011G16KT 10SM CLR 32/08 A2997 RMK AO2 SLP121 T03220078
Altimeter 29.97"
Temperature 32.2°C (90.0°F)
Wind 90° at 11KT with gusts to 16KT
Clouds Skies are clear.
Visibility 10.0mi
Time observed: 2022-09-30T21:52:00Z

KABI Airport Details

Status Operational
Activation November 1953
Ownership Public
Usage Public
Chart DALLAS-FT WORTH
ATC on-site Yes
Beacon schedule sunset-sunrise
Beacon color clear green

KABI Airport Contacts

Owner CITY OF ABILENE
Owner address PO BOX 60, ABILENE, TX 79604
Owner phone 325-676-6206
Manager MURRAY KING
Manager address ARNOLD AFB, TULLAHOMA, TN 37389
Manager phone 931-454-6654

KABI Airport (Abilene Rgnl) Radio Frequencies

KABI (Airport) Radio Frequencies

UNICOM 122.95
Common traffic advisory frequency (CTAF) N/A